• Join FlightAware (Why Join?)
  • Login
  • US Flag 
06:41AM EDT


 

Airport Tracker/Info


-or-


 

Live Flight TrackerFlight Track Log ✈ N15EH ✈ 29-Jun-2013 ✈ KDIK - KSLC

Flight Track Log - Related Links

Times and Time Zones

All times are in EDT time to prevent confusion due to time zone crossing. See the N15EH flight status page for this flight to view local times or setup timezone preferences in your user account.

Time Position Orientation Groundspeed Altitude Reporting Facility
EDT Latitude Longitude Course Direction KTS MPH feet Rate Location/Type
12:42PM 46.7211 -102.9906 226° Southwest 265 305 12,000  Level Salt Lake Center
12:43PM 46.6867 -103.0900 243° Southwest 270 311 15,900 3,240 Climbing Salt Lake Center
12:44PM 46.6528 -103.1933 244° Southwest 277 319 18,700 3,240 Climbing Salt Lake Center
12:45PM 46.6047 -103.3242 242° Southwest 289 333 22,700 3,180 Climbing Salt Lake Center
12:46PM 46.6329 -103.3846 244° Southwest  Level FlightAware Approximate
12:46PM 46.5644 -103.4364 242° Southwest 299 344 25,300  Level Salt Lake Center
12:47PM 46.5200 -103.5528 241° Southwest 311 358 27,700 2,340 Climbing Salt Lake Center
12:48PM 46.4600 -103.6711 234° Southwest 342 394 30,200 2,340 Climbing Salt Lake Center
12:49PM 46.4039 -103.7858 235° Southwest 349 402 32,600 1,860 Climbing Salt Lake Center
12:50PM 46.3483 -103.9033 236° Southwest 351 404 34,100 1,440 Climbing Salt Lake Center
12:51PM 46.2739 -104.0494 234° Southwest 362 417 35,600 1,260 Climbing Salt Lake Center
12:52PM 46.2081 -104.1806 234° Southwest 378 435 36,800 1,080 Climbing Salt Lake Center
12:53PM 46.1419 -104.3178 235° Southwest 396 456 37,900 540 Climbing Salt Lake Center
12:54PM 46.0717 -104.4597 235° Southwest 412 474 38,000  Climbing Salt Lake Center
12:55PM 45.9997 -104.6061 235° Southwest 428 493 38,000  Level Salt Lake Center
12:56PM 45.9281 -104.7544 235° Southwest 440 506 38,000  Level Salt Lake Center
12:57PM 45.8428 -104.9314 235° Southwest 447 514 38,000  Level Salt Lake Center
12:58PM 45.7708 -105.0736 234° Southwest 444 511 38,000  Level Salt Lake Center
12:59PM 45.6986 -105.2169 234° Southwest 444 511 38,000  Level Salt Lake Center
01:00PM 45.6258 -105.3581 234° Southwest 443 510 38,000  Level Salt Lake Center
01:01PM 45.5542 -105.4992 234° Southwest 441 507 38,000  Level Salt Lake Center
01:02PM 45.4806 -105.6394 233° Southwest 441 507 38,000  Level Salt Lake Center
01:03PM 45.3950 -105.8078 234° Southwest 439 505 38,000  Level Salt Lake Center
01:04PM 45.3222 -105.9461 233° Southwest 438 504 38,000  Level Salt Lake Center
01:06PM 45.2453 -106.0900 233° Southwest 438 504 38,000  Level Salt Lake Center
01:07PM 45.1764 -106.2222 234° Southwest 436 502 38,000  Level Salt Lake Center
01:08PM 45.0936 -106.3775 233° Southwest 440 506 38,000  Level Salt Lake Center
01:09PM 45.0236 -106.5106 233° Southwest 442 509 38,000  Level Salt Lake Center
01:10PM 44.9408 -106.6647 233° Southwest 441 507 38,000  Level Salt Lake Center
01:11PM 44.8681 -106.7989 233° Southwest 445 512 38,000  Level Salt Lake Center
01:12PM 44.7850 -106.9528 233° Southwest 446 513 38,000  Level Salt Lake Center
01:13PM 44.7128 -107.0856 233° Southwest 446 513 38,000  Level Salt Lake Center
01:14PM 44.6344 -107.2314 233° Southwest 447 514 38,000  Level Salt Lake Center
01:15PM 44.5492 -107.3861 232° Southwest 449 517 38,000  Level Salt Lake Center
01:16PM 44.4700 -107.5294 232° Southwest 451 519 38,000  Level Salt Lake Center
01:17PM 44.3986 -107.6558 232° Southwest 446 513 38,000  Level Salt Lake Center
01:18PM 44.3125 -107.8103 232° Southwest 451 519 38,000  Level Salt Lake Center
01:19PM 44.2411 -107.9428 233° Southwest 447 514 38,000  Level Salt Lake Center
01:20PM 44.1550 -108.0919 231° Southwest 445 512 38,000  Level Salt Lake Center
01:21PM 44.0831 -108.2192 232° Southwest 439 505 38,000  Level Salt Lake Center
01:22PM 43.9981 -108.3711 232° Southwest 444 511 38,000  Level Salt Lake Center
01:23PM 43.9267 -108.4939 231° Southwest 440 506 38,000  Level Salt Lake Center
01:24PM 43.8417 -108.6439 232° Southwest 443 510 38,000  Level Salt Lake Center
01:25PM 43.7675 -108.7717 231° Southwest 443 510 38,000  Level Salt Lake Center
01:26PM 43.6808 -108.9206 231° Southwest 440 506 38,000  Level Salt Lake Center
01:27PM 43.6075 -109.0469 231° Southwest 441 507 38,000  Level Salt Lake Center
01:28PM 43.5228 -109.1942 232° Southwest 440 506 38,000  Level Salt Lake Center
01:29PM 43.4481 -109.3206 231° Southwest 441 507 38,000 -300 Level Salt Lake Center
01:30PM 43.3744 -109.4469 231° Southwest 442 509 37,500 -900 Descending Salt Lake Center
01:31PM 43.2892 -109.5911 231° Southwest 440 506 36,200 -1,200 Descending Salt Lake Center
01:32PM 43.2139 -109.7153 230° Southwest 440 506 35,100 -1,140 Descending Salt Lake Center
01:33PM 43.1239 -109.8664 231° Southwest 448 516 33,900 -1,020 Descending Salt Lake Center
01:34PM 43.0472 -109.9936 231° Southwest 450 518 33,000 -960 Descending Salt Lake Center
01:36PM 42.9606 -110.1378 231° Southwest 441 507 32,000 -540 Descending Salt Lake Center
01:37PM 42.8853 -110.2636 231° Southwest 444 511 32,000  Level Salt Lake Center
01:38PM 42.7972 -110.4069 230° Southwest 442 509 32,000  Level Salt Lake Center
01:39PM 42.7228 -110.5283 230° Southwest 438 504 32,000  Level Salt Lake Center
01:40PM 42.6372 -110.6675 230° Southwest 443 510 32,000  Level Salt Lake Center
01:41PM 42.5631 -110.7883 230° Southwest 437 503 32,000  Level Salt Lake Center
01:42PM 42.4750 -110.9294 230° Southwest 439 505 32,000 -360 Level Salt Lake Center
01:43PM 42.4083 -111.0372 230° Southwest 438 504 31,300 -960 Descending Salt Lake Center
01:44PM 42.3158 -111.1858 230° Southwest 434 499 30,100 -660 Descending Salt Lake Center
01:45PM 42.2389 -111.3069 229° Southwest 427 491 30,000 -60 Descending Salt Lake Center
01:46PM 42.1617 -111.4297 230° Southwest 430 495 30,000  Level Salt Lake Center
01:47PM 42.0828 -111.5533 229° Southwest 437 503 30,000 -360 Level Salt Lake Center
01:48PM 42.0044 -111.6767 230° Southwest 436 502 29,300 -1,620 Descending Salt Lake Center
01:49PM 41.8978 -111.7986 220° Southwest 428 493 26,700 -2,520 Descending Salt Lake Center
01:50PM 41.8094 -111.8939 219° Southwest 414 476 24,100 -2,640 Descending Salt Lake Center
01:51PM 41.7414 -112.0094 232° Southwest 395 455 21,300 -2,640 Descending Salt Lake Center
01:52PM 41.6803 -112.0772 220° Southwest 386 444 19,500 -1,440 Descending Salt Lake Center
01:53PM 41.5786 -112.0519 169° South 389 448 18,800 -840 Descending Salt Lake Center
01:54PM 41.4733 -112.0536 181° South 385 443 17,800 -1,200 Descending Salt Lake Center
01:55PM 41.3750 -112.0786 191° South 393 452 16,600 -1,200 Descending Salt Lake Center
01:56PM 41.2700 -112.1031 190° South 386 444 15,500 -1,140 Descending Salt Lake Center
01:57PM 41.1603 -112.1261 189° South 378 435 14,300 -1,200 Descending Salt Lake Center
01:57PM 41.1211 -112.1364 191° South 360 414 13,700 -1,140 Descending Salt Lake Center
01:58PM 41.0647 -112.1444 186° South 344 396 13,200 -1,080 Descending Salt Lake Center
01:58PM 41.0300 -112.1369 171° South 337 388 12,600 -1,440 Descending Salt Lake Center
01:59PM 40.9233 -112.1122 170° South 326 375 11,000 -840 Descending Salt Lake Center
02:00PM 40.8428 -112.1019 174° South 288 331 10,900 -840 Descending Salt Lake Center
02:01PM 40.7731 -112.0917 174° South 254 292 9,300 -1,260 Descending Salt Lake Center
02:02PM 40.7067 -112.0736 168° South 242 278 8,400 -840 Descending Salt Lake Center
02:03PM 40.6614 -112.0264 142° Southeast 233 268 7,600 -780 Descending Salt Lake Center
02:04PM 40.6819 -111.9597 68° East 220 253 6,800 -1,200 Descending Salt Lake Center
02:05PM 40.7394 -111.9625 358° North 174 200 5,200 -1,260 Descending Salt Lake Center
02:07PM 40.7806 -111.9622 360° North 151 174 4,300 -900 Descending Salt Lake Center
02:09PM 40.7833 -111.9667 17° North  Level FlightAware Approximate